sensor_id;sensor_type;location;lat;lon;timestamp;P1;durP1;ratioP1;P2;durP2;ratioP2
32633;SDS011;19043;51.012;5.648;2024-02-16T00:01:39;2.83;;;1.10;;
32633;SDS011;19043;51.012;5.648;2024-02-16T00:04:04;4.93;;;1.77;;
32633;SDS011;19043;51.012;5.648;2024-02-16T00:06:29;2.80;;;1.10;;
32633;SDS011;19043;51.012;5.648;2024-02-16T00:08:56;3.30;;;1.35;;
32633;SDS011;19043;51.012;5.648;2024-02-16T00:11:21;3.40;;;1.23;;
32633;SDS011;19043;51.012;5.648;2024-02-16T00:13:46;3.00;;;1.20;;
32633;SDS011;19043;51.012;5.648;2024-02-16T00:16:12;2.80;;;1.08;;
32633;SDS011;19043;51.012;5.648;2024-02-16T00:18:37;4.00;;;1.42;;
32633;SDS011;19043;51.012;5.648;2024-02-16T00:21:02;4.93;;;1.30;;
32633;SDS011;19043;51.012;5.648;2024-02-16T00:23:27;5.57;;;1.33;;
32633;SDS011;19043;51.012;5.648;2024-02-16T00:25:53;3.30;;;1.20;;
32633;SDS011;19043;51.012;5.648;2024-02-16T00:28:18;4.03;;;1.67;;
32633;SDS011;19043;51.012;5.648;2024-02-16T00:30:43;2.60;;;1.30;;
32633;SDS011;19043;51.012;5.648;2024-02-16T00:33:09;4.68;;;1.45;;
32633;SDS011;19043;51.012;5.648;2024-02-16T00:35:34;1.87;;;0.87;;
32633;SDS011;19043;51.012;5.648;2024-02-16T00:37:59;2.60;;;1.20;;
32633;SDS011;19043;51.012;5.648;2024-02-16T00:40:25;2.33;;;1.23;;
32633;SDS011;19043;51.012;5.648;2024-02-16T00:42:51;3.47;;;1.40;;
32633;SDS011;19043;51.012;5.648;2024-02-16T00:45:16;3.10;;;1.38;;
32633;SDS011;19043;51.012;5.648;2024-02-16T00:47:42;3.85;;;1.10;;
32633;SDS011;19043;51.012;5.648;2024-02-16T00:50:07;2.85;;;1.23;;
32633;SDS011;19043;51.012;5.648;2024-02-16T00:52:34;3.38;;;1.17;;
32633;SDS011;19043;51.012;5.648;2024-02-16T00:54:59;4.63;;;1.60;;
32633;SDS011;19043;51.012;5.648;2024-02-16T00:57:24;3.53;;;1.35;;
32633;SDS011;19043;51.012;5.648;2024-02-16T00:59:50;3.28;;;1.42;;
32633;SDS011;19043;51.012;5.648;2024-02-16T01:02:15;4.53;;;1.30;;
32633;SDS011;19043;51.012;5.648;2024-02-16T01:04:41;2.70;;;1.10;;
32633;SDS011;19043;51.012;5.648;2024-02-16T01:07:07;3.38;;;1.50;;
32633;SDS011;19043;51.012;5.648;2024-02-16T01:09:32;2.57;;;1.00;;
32633;SDS011;19043;51.012;5.648;2024-02-16T01:11:57;3.03;;;1.10;;
32633;SDS011;19043;51.012;5.648;2024-02-16T01:14:22;3.10;;;1.40;;
32633;SDS011;19043;51.012;5.648;2024-02-16T01:16:48;4.40;;;1.53;;
32633;SDS011;19043;51.012;5.648;2024-02-16T01:19:13;3.67;;;1.40;;
32633;SDS011;19043;51.012;5.648;2024-02-16T01:21:38;2.20;;;1.13;;
32633;SDS011;19043;51.012;5.648;2024-02-16T01:24:04;4.30;;;1.30;;
32633;SDS011;19043;51.012;5.648;2024-02-16T01:26:29;3.33;;;1.33;;
32633;SDS011;19043;51.012;5.648;2024-02-16T01:28:54;4.37;;;1.53;;
32633;SDS011;19043;51.012;5.648;2024-02-16T01:31:20;2.55;;;1.08;;
32633;SDS011;19043;51.012;5.648;2024-02-16T01:33:45;3.10;;;1.27;;
32633;SDS011;19043;51.012;5.648;2024-02-16T01:36:10;4.90;;;1.55;;
32633;SDS011;19043;51.012;5.648;2024-02-16T01:38:36;2.73;;;1.40;;
32633;SDS011;19043;51.012;5.648;2024-02-16T01:41:01;4.55;;;1.77;;
32633;SDS011;19043;51.012;5.648;2024-02-16T01:43:27;3.15;;;1.45;;
32633;SDS011;19043;51.012;5.648;2024-02-16T01:45:52;3.53;;;1.48;;
32633;SDS011;19043;51.012;5.648;2024-02-16T01:48:17;2.33;;;0.98;;
32633;SDS011;19043;51.012;5.648;2024-02-16T01:50:43;4.03;;;1.33;;
32633;SDS011;19043;51.012;5.648;2024-02-16T01:53:09;6.47;;;1.45;;
32633;SDS011;19043;51.012;5.648;2024-02-16T01:55:34;3.20;;;1.33;;
32633;SDS011;19043;51.012;5.648;2024-02-16T01:58:00;4.28;;;1.65;;
32633;SDS011;19043;51.012;5.648;2024-02-16T02:00:25;3.70;;;1.63;;
32633;SDS011;19043;51.012;5.648;2024-02-16T02:02:51;2.53;;;1.10;;
32633;SDS011;19043;51.012;5.648;2024-02-16T02:05:16;3.90;;;1.88;;
32633;SDS011;19043;51.012;5.648;2024-02-16T02:07:41;3.47;;;1.38;;
32633;SDS011;19043;51.012;5.648;2024-02-16T02:10:08;3.67;;;1.70;;
32633;SDS011;19043;51.012;5.648;2024-02-16T02:12:33;3.13;;;1.55;;
32633;SDS011;19043;51.012;5.648;2024-02-16T02:14:59;3.20;;;1.50;;
32633;SDS011;19043;51.012;5.648;2024-02-16T02:17:24;5.05;;;1.45;;
32633;SDS011;19043;51.012;5.648;2024-02-16T02:19:49;3.08;;;1.23;;
32633;SDS011;19043;51.012;5.648;2024-02-16T02:24:40;3.10;;;1.30;;
32633;SDS011;19043;51.012;5.648;2024-02-16T02:27:05;3.33;;;1.40;;
32633;SDS011;19043;51.012;5.648;2024-02-16T02:29:30;4.68;;;1.48;;
32633;SDS011;19043;51.012;5.648;2024-02-16T02:31:55;4.10;;;1.40;;
32633;SDS011;19043;51.012;5.648;2024-02-16T02:34:20;3.23;;;1.23;;
32633;SDS011;19043;51.012;5.648;2024-02-16T02:36:46;2.73;;;1.03;;
32633;SDS011;19043;51.012;5.648;2024-02-16T02:39:11;3.05;;;1.15;;
32633;SDS011;19043;51.012;5.648;2024-02-16T02:41:38;3.40;;;1.38;;
32633;SDS011;19043;51.012;5.648;2024-02-16T02:44:03;3.22;;;1.50;;
32633;SDS011;19043;51.012;5.648;2024-02-16T02:46:29;4.13;;;1.63;;
32633;SDS011;19043;51.012;5.648;2024-02-16T02:48:54;3.30;;;1.63;;
32633;SDS011;19043;51.012;5.648;2024-02-16T02:51:19;3.45;;;1.30;;
32633;SDS011;19043;51.012;5.648;2024-02-16T02:53:44;2.47;;;1.13;;
32633;SDS011;19043;51.012;5.648;2024-02-16T02:56:10;2.63;;;1.37;;
32633;SDS011;19043;51.012;5.648;2024-02-16T02:58:35;2.83;;;1.27;;
32633;SDS011;19043;51.012;5.648;2024-02-16T03:01:00;2.77;;;1.23;;
32633;SDS011;19043;51.012;5.648;2024-02-16T03:03:25;4.30;;;1.20;;
32633;SDS011;19043;51.012;5.648;2024-02-16T03:05:50;3.58;;;1.25;;
32633;SDS011;19043;51.012;5.648;2024-02-16T03:08:16;4.53;;;1.30;;
32633;SDS011;19043;51.012;5.648;2024-02-16T03:10:41;4.53;;;1.45;;
32633;SDS011;19043;51.012;5.648;2024-02-16T03:13:06;6.50;;;1.67;;
32633;SDS011;19043;51.012;5.648;2024-02-16T03:15:34;3.90;;;1.20;;
32633;SDS011;19043;51.012;5.648;2024-02-16T03:18:01;3.63;;;1.58;;
32633;SDS011;19043;51.012;5.648;2024-02-16T03:20:26;3.95;;;1.40;;
32633;SDS011;19043;51.012;5.648;2024-02-16T03:22:51;5.40;;;1.33;;
32633;SDS011;19043;51.012;5.648;2024-02-16T03:25:17;4.40;;;1.40;;
32633;SDS011;19043;51.012;5.648;2024-02-16T03:27:42;4.83;;;1.70;;
32633;SDS011;19043;51.012;5.648;2024-02-16T03:30:08;3.55;;;1.30;;
32633;SDS011;19043;51.012;5.648;2024-02-16T03:32:33;4.78;;;1.70;;
32633;SDS011;19043;51.012;5.648;2024-02-16T03:34:58;4.40;;;1.67;;
32633;SDS011;19043;51.012;5.648;2024-02-16T03:37:24;2.35;;;1.00;;
32633;SDS011;19043;51.012;5.648;2024-02-16T03:39:49;8.68;;;1.50;;
32633;SDS011;19043;51.012;5.648;2024-02-16T03:42:14;4.13;;;1.40;;
32633;SDS011;19043;51.012;5.648;2024-02-16T03:44:40;2.35;;;1.20;;
32633;SDS011;19043;51.012;5.648;2024-02-16T03:47:06;4.53;;;1.57;;
32633;SDS011;19043;51.012;5.648;2024-02-16T03:49:33;4.20;;;1.85;;
32633;SDS011;19043;51.012;5.648;2024-02-16T03:51:58;7.55;;;1.35;;
32633;SDS011;19043;51.012;5.648;2024-02-16T03:54:23;3.47;;;1.20;;
32633;SDS011;19043;51.012;5.648;2024-02-16T03:56:52;6.27;;;1.70;;
32633;SDS011;19043;51.012;5.648;2024-02-16T03:59:17;3.35;;;1.60;;
32633;SDS011;19043;51.012;5.648;2024-02-16T04:01:42;3.13;;;1.27;;
32633;SDS011;19043;51.012;5.648;2024-02-16T04:04:07;3.87;;;1.80;;
32633;SDS011;19043;51.012;5.648;2024-02-16T04:06:32;4.50;;;1.70;;
32633;SDS011;19043;51.012;5.648;2024-02-16T04:08:58;6.28;;;1.90;;
32633;SDS011;19043;51.012;5.648;2024-02-16T04:11:23;4.18;;;1.83;;
32633;SDS011;19043;51.012;5.648;2024-02-16T04:13:48;2.92;;;1.33;;
32633;SDS011;19043;51.012;5.648;2024-02-16T04:16:13;5.37;;;1.67;;
32633;SDS011;19043;51.012;5.648;2024-02-16T04:18:39;3.55;;;1.40;;
32633;SDS011;19043;51.012;5.648;2024-02-16T04:21:04;4.53;;;1.40;;
32633;SDS011;19043;51.012;5.648;2024-02-16T04:23:29;5.10;;;1.40;;
32633;SDS011;19043;51.012;5.648;2024-02-16T04:25:54;5.93;;;1.27;;
32633;SDS011;19043;51.012;5.648;2024-02-16T04:28:20;3.55;;;1.38;;
32633;SDS011;19043;51.012;5.648;2024-02-16T04:30:45;2.83;;;1.38;;
32633;SDS011;19043;51.012;5.648;2024-02-16T04:33:10;4.00;;;1.58;;
32633;SDS011;19043;51.012;5.648;2024-02-16T04:35:36;5.18;;;1.67;;
32633;SDS011;19043;51.012;5.648;2024-02-16T04:38:01;3.30;;;1.63;;
32633;SDS011;19043;51.012;5.648;2024-02-16T04:40:26;3.60;;;1.77;;
32633;SDS011;19043;51.012;5.648;2024-02-16T04:42:51;3.63;;;1.50;;
32633;SDS011;19043;51.012;5.648;2024-02-16T04:45:17;3.00;;;1.25;;
32633;SDS011;19043;51.012;5.648;2024-02-16T04:47:42;5.90;;;1.73;;
32633;SDS011;19043;51.012;5.648;2024-02-16T04:50:08;2.37;;;1.23;;
32633;SDS011;19043;51.012;5.648;2024-02-16T04:52:35;3.25;;;1.48;;
32633;SDS011;19043;51.012;5.648;2024-02-16T04:55:00;6.25;;;1.77;;
32633;SDS011;19043;51.012;5.648;2024-02-16T04:57:26;4.30;;;1.70;;
32633;SDS011;19043;51.012;5.648;2024-02-16T04:59:51;3.73;;;1.50;;
32633;SDS011;19043;51.012;5.648;2024-02-16T05:02:16;3.78;;;1.48;;
32633;SDS011;19043;51.012;5.648;2024-02-16T05:04:42;5.28;;;1.60;;
32633;SDS011;19043;51.012;5.648;2024-02-16T05:07:07;3.95;;;1.33;;
32633;SDS011;19043;51.012;5.648;2024-02-16T05:09:32;6.07;;;1.70;;
32633;SDS011;19043;51.012;5.648;2024-02-16T05:11:58;4.00;;;1.88;;
32633;SDS011;19043;51.012;5.648;2024-02-16T05:14:23;4.40;;;1.90;;
32633;SDS011;19043;51.012;5.648;2024-02-16T05:16:49;7.05;;;1.88;;
32633;SDS011;19043;51.012;5.648;2024-02-16T05:19:15;4.38;;;1.58;;
32633;SDS011;19043;51.012;5.648;2024-02-16T05:21:40;3.70;;;1.53;;
32633;SDS011;19043;51.012;5.648;2024-02-16T05:24:06;5.40;;;1.50;;
32633;SDS011;19043;51.012;5.648;2024-02-16T05:26:31;4.30;;;1.88;;
32633;SDS011;19043;51.012;5.648;2024-02-16T05:28:56;3.90;;;1.63;;
32633;SDS011;19043;51.012;5.648;2024-02-16T05:31:21;2.83;;;1.37;;
32633;SDS011;19043;51.012;5.648;2024-02-16T05:33:47;4.10;;;1.63;;
32633;SDS011;19043;51.012;5.648;2024-02-16T05:36:16;5.55;;;1.60;;
32633;SDS011;19043;51.012;5.648;2024-02-16T05:38:41;2.90;;;1.25;;
32633;SDS011;19043;51.012;5.648;2024-02-16T05:41:08;3.28;;;1.25;;
32633;SDS011;19043;51.012;5.648;2024-02-16T05:43:33;4.00;;;1.73;;
32633;SDS011;19043;51.012;5.648;2024-02-16T05:45:59;3.40;;;1.45;;
32633;SDS011;19043;51.012;5.648;2024-02-16T05:48:24;3.63;;;1.60;;
32633;SDS011;19043;51.012;5.648;2024-02-16T05:50:51;3.92;;;1.40;;
32633;SDS011;19043;51.012;5.648;2024-02-16T05:53:17;2.92;;;1.30;;
32633;SDS011;19043;51.012;5.648;2024-02-16T05:55:43;5.18;;;1.52;;
32633;SDS011;19043;51.012;5.648;2024-02-16T05:58:09;6.40;;;1.77;;
32633;SDS011;19043;51.012;5.648;2024-02-16T06:00:34;8.32;;;2.13;;
32633;SDS011;19043;51.012;5.648;2024-02-16T06:02:59;5.82;;;1.58;;
32633;SDS011;19043;51.012;5.648;2024-02-16T06:05:25;4.40;;;1.77;;
32633;SDS011;19043;51.012;5.648;2024-02-16T06:07:50;3.67;;;1.47;;
32633;SDS011;19043;51.012;5.648;2024-02-16T06:10:15;4.55;;;1.75;;
32633;SDS011;19043;51.012;5.648;2024-02-16T06:12:41;5.95;;;1.90;;
32633;SDS011;19043;51.012;5.648;2024-02-16T06:15:06;2.83;;;1.27;;
32633;SDS011;19043;51.012;5.648;2024-02-16T06:17:31;5.50;;;1.85;;
32633;SDS011;19043;51.012;5.648;2024-02-16T06:19:56;5.28;;;1.85;;
32633;SDS011;19043;51.012;5.648;2024-02-16T06:22:22;5.43;;;1.75;;
32633;SDS011;19043;51.012;5.648;2024-02-16T06:24:47;4.17;;;1.67;;
32633;SDS011;19043;51.012;5.648;2024-02-16T06:27:12;4.43;;;1.63;;
32633;SDS011;19043;51.012;5.648;2024-02-16T06:29:38;4.68;;;1.80;;
32633;SDS011;19043;51.012;5.648;2024-02-16T06:32:03;3.55;;;1.45;;
32633;SDS011;19043;51.012;5.648;2024-02-16T06:34:29;5.70;;;2.10;;
32633;SDS011;19043;51.012;5.648;2024-02-16T06:36:54;4.43;;;1.88;;
32633;SDS011;19043;51.012;5.648;2024-02-16T06:39:19;4.55;;;1.88;;
32633;SDS011;19043;51.012;5.648;2024-02-16T06:41:45;3.63;;;1.67;;
32633;SDS011;19043;51.012;5.648;2024-02-16T06:44:13;5.45;;;1.63;;
32633;SDS011;19043;51.012;5.648;2024-02-16T06:46:39;3.25;;;1.60;;
32633;SDS011;19043;51.012;5.648;2024-02-16T06:49:05;5.28;;;2.17;;
32633;SDS011;19043;51.012;5.648;2024-02-16T06:51:30;3.78;;;1.90;;
32633;SDS011;19043;51.012;5.648;2024-02-16T06:53:55;3.70;;;1.43;;
32633;SDS011;19043;51.012;5.648;2024-02-16T06:56:20;4.93;;;1.80;;
32633;SDS011;19043;51.012;5.648;2024-02-16T06:58:46;6.00;;;1.92;;
32633;SDS011;19043;51.012;5.648;2024-02-16T07:01:14;8.55;;;1.85;;
32633;SDS011;19043;51.012;5.648;2024-02-16T07:03:40;6.53;;;1.90;;
32633;SDS011;19043;51.012;5.648;2024-02-16T07:06:05;5.47;;;1.52;;
32633;SDS011;19043;51.012;5.648;2024-02-16T07:08:34;6.00;;;1.60;;
32633;SDS011;19043;51.012;5.648;2024-02-16T07:11:00;4.00;;;1.80;;
32633;SDS011;19043;51.012;5.648;2024-02-16T07:13:25;7.67;;;2.10;;
32633;SDS011;19043;51.012;5.648;2024-02-16T07:15:51;5.63;;;1.87;;
32633;SDS011;19043;51.012;5.648;2024-02-16T07:18:16;4.30;;;1.70;;
32633;SDS011;19043;51.012;5.648;2024-02-16T07:20:41;4.32;;;1.70;;
32633;SDS011;19043;51.012;5.648;2024-02-16T07:23:07;7.00;;;2.47;;
32633;SDS011;19043;51.012;5.648;2024-02-16T07:25:34;4.32;;;2.05;;
32633;SDS011;19043;51.012;5.648;2024-02-16T07:27:59;6.30;;;1.67;;
32633;SDS011;19043;51.012;5.648;2024-02-16T07:30:24;3.97;;;1.65;;
32633;SDS011;19043;51.012;5.648;2024-02-16T07:32:50;3.90;;;1.73;;
32633;SDS011;19043;51.012;5.648;2024-02-16T07:35:15;7.32;;;2.13;;
32633;SDS011;19043;51.012;5.648;2024-02-16T07:37:40;5.75;;;1.95;;
32633;SDS011;19043;51.012;5.648;2024-02-16T07:40:06;5.47;;;2.10;;
32633;SDS011;19043;51.012;5.648;2024-02-16T07:42:34;3.53;;;1.58;;
32633;SDS011;19043;51.012;5.648;2024-02-16T07:44:59;3.30;;;1.48;;
32633;SDS011;19043;51.012;5.648;2024-02-16T07:47:24;5.53;;;2.00;;
32633;SDS011;19043;51.012;5.648;2024-02-16T07:49:50;4.17;;;1.80;;
32633;SDS011;19043;51.012;5.648;2024-02-16T07:52:15;3.30;;;2.00;;
32633;SDS011;19043;51.012;5.648;2024-02-16T07:54:40;4.33;;;1.77;;
32633;SDS011;19043;51.012;5.648;2024-02-16T07:57:06;6.28;;;1.90;;
32633;SDS011;19043;51.012;5.648;2024-02-16T07:59:31;3.30;;;1.60;;
32633;SDS011;19043;51.012;5.648;2024-02-16T08:01:56;6.63;;;1.90;;
32633;SDS011;19043;51.012;5.648;2024-02-16T08:04:21;5.13;;;2.27;;
32633;SDS011;19043;51.012;5.648;2024-02-16T08:06:47;4.35;;;1.83;;
32633;SDS011;19043;51.012;5.648;2024-02-16T08:09:12;7.50;;;2.17;;
32633;SDS011;19043;51.012;5.648;2024-02-16T08:11:37;7.40;;;2.20;;
32633;SDS011;19043;51.012;5.648;2024-02-16T08:14:02;6.67;;;1.97;;
32633;SDS011;19043;51.012;5.648;2024-02-16T08:16:28;3.67;;;1.77;;
32633;SDS011;19043;51.012;5.648;2024-02-16T08:18:53;8.75;;;2.03;;
32633;SDS011;19043;51.012;5.648;2024-02-16T08:21:18;6.77;;;1.97;;
32633;SDS011;19043;51.012;5.648;2024-02-16T08:23:43;4.73;;;1.70;;
32633;SDS011;19043;51.012;5.648;2024-02-16T08:26:09;3.90;;;2.10;;
32633;SDS011;19043;51.012;5.648;2024-02-16T08:28:34;6.05;;;2.17;;
32633;SDS011;19043;51.012;5.648;2024-02-16T08:30:59;4.60;;;2.15;;
32633;SDS011;19043;51.012;5.648;2024-02-16T08:33:24;3.43;;;1.80;;
32633;SDS011;19043;51.012;5.648;2024-02-16T08:35:50;6.17;;;2.67;;
32633;SDS011;19043;51.012;5.648;2024-02-16T08:38:15;6.60;;;2.03;;
32633;SDS011;19043;51.012;5.648;2024-02-16T08:40:41;3.92;;;1.65;;
32633;SDS011;19043;51.012;5.648;2024-02-16T08:43:06;4.50;;;2.00;;
32633;SDS011;19043;51.012;5.648;2024-02-16T08:45:34;3.72;;;1.80;;
32633;SDS011;19043;51.012;5.648;2024-02-16T08:47:59;4.82;;;2.22;;
32633;SDS011;19043;51.012;5.648;2024-02-16T08:50:27;4.22;;;1.73;;
32633;SDS011;19043;51.012;5.648;2024-02-16T08:52:52;6.20;;;2.13;;
32633;SDS011;19043;51.012;5.648;2024-02-16T08:55:18;6.80;;;2.78;;
32633;SDS011;19043;51.012;5.648;2024-02-16T08:57:43;4.75;;;2.40;;
32633;SDS011;19043;51.012;5.648;2024-02-16T09:00:08;5.50;;;1.95;;
32633;SDS011;19043;51.012;5.648;2024-02-16T09:02:34;4.95;;;2.17;;
32633;SDS011;19043;51.012;5.648;2024-02-16T09:05:00;3.92;;;2.28;;
32633;SDS011;19043;51.012;5.648;2024-02-16T09:07:25;5.53;;;2.30;;
32633;SDS011;19043;51.012;5.648;2024-02-16T09:09:51;6.47;;;2.50;;
32633;SDS011;19043;51.012;5.648;2024-02-16T09:12:16;7.03;;;2.05;;
32633;SDS011;19043;51.012;5.648;2024-02-16T09:14:41;5.43;;;2.53;;
32633;SDS011;19043;51.012;5.648;2024-02-16T09:17:07;4.60;;;2.03;;
32633;SDS011;19043;51.012;5.648;2024-02-16T09:19:32;8.63;;;2.75;;
32633;SDS011;19043;51.012;5.648;2024-02-16T09:21:57;4.68;;;1.88;;
32633;SDS011;19043;51.012;5.648;2024-02-16T09:24:23;6.40;;;2.35;;
32633;SDS011;19043;51.012;5.648;2024-02-16T09:26:53;5.97;;;2.50;;
32633;SDS011;19043;51.012;5.648;2024-02-16T09:29:19;4.03;;;2.00;;
32633;SDS011;19043;51.012;5.648;2024-02-16T09:31:44;6.37;;;2.40;;
32633;SDS011;19043;51.012;5.648;2024-02-16T09:34:09;5.43;;;2.67;;
32633;SDS011;19043;51.012;5.648;2024-02-16T09:36:34;9.52;;;2.70;;
32633;SDS011;19043;51.012;5.648;2024-02-16T09:39:02;5.88;;;2.50;;
32633;SDS011;19043;51.012;5.648;2024-02-16T09:41:27;7.68;;;2.70;;
32633;SDS011;19043;51.012;5.648;2024-02-16T09:43:53;6.28;;;2.45;;
32633;SDS011;19043;51.012;5.648;2024-02-16T09:46:19;6.05;;;2.53;;
32633;SDS011;19043;51.012;5.648;2024-02-16T09:48:46;5.93;;;2.38;;
32633;SDS011;19043;51.012;5.648;2024-02-16T09:51:13;6.28;;;2.40;;
32633;SDS011;19043;51.012;5.648;2024-02-16T09:53:39;6.30;;;2.67;;
32633;SDS011;19043;51.012;5.648;2024-02-16T09:56:07;5.03;;;2.60;;
32633;SDS011;19043;51.012;5.648;2024-02-16T09:58:35;4.95;;;2.92;;
32633;SDS011;19043;51.012;5.648;2024-02-16T10:01:01;5.55;;;2.50;;
32633;SDS011;19043;51.012;5.648;2024-02-16T10:03:28;5.07;;;1.98;;
32633;SDS011;19043;51.012;5.648;2024-02-16T10:08:32;5.35;;;2.45;;
32633;SDS011;19043;51.012;5.648;2024-02-16T10:11:00;5.32;;;2.40;;
32633;SDS011;19043;51.012;5.648;2024-02-16T10:13:26;5.20;;;2.75;;
32633;SDS011;19043;51.012;5.648;2024-02-16T10:15:51;4.22;;;1.92;;
32633;SDS011;19043;51.012;5.648;2024-02-16T10:18:18;6.70;;;2.95;;
32633;SDS011;19043;51.012;5.648;2024-02-16T10:20:44;8.85;;;2.78;;
32633;SDS011;19043;51.012;5.648;2024-02-16T10:23:10;9.93;;;2.85;;
32633;SDS011;19043;51.012;5.648;2024-02-16T10:25:36;6.78;;;3.20;;
32633;SDS011;19043;51.012;5.648;2024-02-16T10:28:03;6.30;;;2.97;;
32633;SDS011;19043;51.012;5.648;2024-02-16T10:30:29;5.93;;;2.95;;
32633;SDS011;19043;51.012;5.648;2024-02-16T10:32:56;7.80;;;2.90;;
32633;SDS011;19043;51.012;5.648;2024-02-16T10:35:23;5.20;;;2.92;;
32633;SDS011;19043;51.012;5.648;2024-02-16T10:37:49;7.82;;;3.72;;
32633;SDS011;19043;51.012;5.648;2024-02-16T10:40:15;7.88;;;3.35;;
32633;SDS011;19043;51.012;5.648;2024-02-16T10:42:44;6.97;;;3.38;;
32633;SDS011;19043;51.012;5.648;2024-02-16T10:45:10;8.48;;;3.20;;
32633;SDS011;19043;51.012;5.648;2024-02-16T10:47:38;8.18;;;3.47;;
32633;SDS011;19043;51.012;5.648;2024-02-16T10:50:04;7.68;;;3.63;;
32633;SDS011;19043;51.012;5.648;2024-02-16T10:52:29;9.60;;;3.35;;
32633;SDS011;19043;51.012;5.648;2024-02-16T10:54:55;6.70;;;3.35;;
32633;SDS011;19043;51.012;5.648;2024-02-16T10:57:23;5.70;;;3.20;;
32633;SDS011;19043;51.012;5.648;2024-02-16T10:59:49;9.48;;;3.25;;
32633;SDS011;19043;51.012;5.648;2024-02-16T11:02:17;5.57;;;3.00;;
32633;SDS011;19043;51.012;5.648;2024-02-16T11:04:45;6.75;;;3.53;;
32633;SDS011;19043;51.012;5.648;2024-02-16T11:07:11;7.25;;;4.15;;
32633;SDS011;19043;51.012;5.648;2024-02-16T11:09:38;6.20;;;3.78;;
32633;SDS011;19043;51.012;5.648;2024-02-16T11:12:04;8.20;;;4.05;;
32633;SDS011;19043;51.012;5.648;2024-02-16T11:14:38;10.07;;;3.70;;
32633;SDS011;19043;51.012;5.648;2024-02-16T11:17:10;6.72;;;3.90;;
32633;SDS011;19043;51.012;5.648;2024-02-16T11:19:36;8.07;;;3.78;;
32633;SDS011;19043;51.012;5.648;2024-02-16T11:22:05;6.82;;;3.22;;
32633;SDS011;19043;51.012;5.648;2024-02-16T11:24:42;10.48;;;3.65;;
32633;SDS011;19043;51.012;5.648;2024-02-16T11:27:09;8.82;;;3.67;;
32633;SDS011;19043;51.012;5.648;2024-02-16T11:29:35;11.35;;;4.13;;
32633;SDS011;19043;51.012;5.648;2024-02-16T11:32:01;9.60;;;3.95;;
32633;SDS011;19043;51.012;5.648;2024-02-16T11:34:27;10.63;;;4.63;;
32633;SDS011;19043;51.012;5.648;2024-02-16T11:36:57;7.40;;;4.10;;
32633;SDS011;19043;51.012;5.648;2024-02-16T11:39:22;9.93;;;4.07;;
32633;SDS011;19043;51.012;5.648;2024-02-16T11:41:48;9.77;;;3.83;;
32633;SDS011;19043;51.012;5.648;2024-02-16T11:44:23;8.13;;;4.30;;
32633;SDS011;19043;51.012;5.648;2024-02-16T11:46:52;10.63;;;5.10;;
32633;SDS011;19043;51.012;5.648;2024-02-16T11:49:18;8.82;;;4.65;;
32633;SDS011;19043;51.012;5.648;2024-02-16T11:51:43;10.73;;;4.77;;
32633;SDS011;19043;51.012;5.648;2024-02-16T11:54:09;9.52;;;4.55;;
32633;SDS011;19043;51.012;5.648;2024-02-16T11:56:34;9.15;;;4.53;;
32633;SDS011;19043;51.012;5.648;2024-02-16T11:58:59;8.20;;;4.53;;
32633;SDS011;19043;51.012;5.648;2024-02-16T12:01:25;8.93;;;5.03;;
32633;SDS011;19043;51.012;5.648;2024-02-16T12:03:50;7.85;;;4.72;;
32633;SDS011;19043;51.012;5.648;2024-02-16T12:06:22;10.35;;;5.40;;
32633;SDS011;19043;51.012;5.648;2024-02-16T12:08:47;10.65;;;5.60;;
32633;SDS011;19043;51.012;5.648;2024-02-16T12:11:12;10.93;;;5.60;;
32633;SDS011;19043;51.012;5.648;2024-02-16T12:13:39;12.48;;;5.90;;
32633;SDS011;19043;51.012;5.648;2024-02-16T12:16:04;10.02;;;5.60;;
32633;SDS011;19043;51.012;5.648;2024-02-16T12:18:31;9.07;;;5.70;;
32633;SDS011;19043;51.012;5.648;2024-02-16T12:23:22;17.53;;;7.37;;
32633;SDS011;19043;51.012;5.648;2024-02-16T12:25:47;12.45;;;6.03;;
32633;SDS011;19043;51.012;5.648;2024-02-16T12:28:13;10.10;;;6.40;;
32633;SDS011;19043;51.012;5.648;2024-02-16T12:30:38;12.38;;;6.60;;
32633;SDS011;19043;51.012;5.648;2024-02-16T12:33:05;11.27;;;5.97;;
32633;SDS011;19043;51.012;5.648;2024-02-16T12:35:30;9.77;;;5.70;;
32633;SDS011;19043;51.012;5.648;2024-02-16T12:37:55;10.88;;;6.10;;
32633;SDS011;19043;51.012;5.648;2024-02-16T12:40:21;10.27;;;6.00;;
32633;SDS011;19043;51.012;5.648;2024-02-16T12:42:46;9.57;;;6.35;;
32633;SDS011;19043;51.012;5.648;2024-02-16T12:45:13;11.13;;;5.63;;
32633;SDS011;19043;51.012;5.648;2024-02-16T12:47:38;12.43;;;6.38;;
32633;SDS011;19043;51.012;5.648;2024-02-16T12:50:03;11.05;;;6.40;;
32633;SDS011;19043;51.012;5.648;2024-02-16T12:52:29;13.40;;;6.43;;
32633;SDS011;19043;51.012;5.648;2024-02-16T12:54:55;13.23;;;6.43;;
32633;SDS011;19043;51.012;5.648;2024-02-16T12:57:23;12.75;;;6.72;;
32633;SDS011;19043;51.012;5.648;2024-02-16T12:59:48;12.57;;;6.50;;
32633;SDS011;19043;51.012;5.648;2024-02-16T13:02:14;10.40;;;6.15;;
32633;SDS011;19043;51.012;5.648;2024-02-16T13:04:39;12.55;;;6.53;;
32633;SDS011;19043;51.012;5.648;2024-02-16T13:07:05;10.43;;;6.10;;
32633;SDS011;19043;51.012;5.648;2024-02-16T13:09:30;12.05;;;6.88;;
32633;SDS011;19043;51.012;5.648;2024-02-16T13:11:55;9.55;;;6.45;;
32633;SDS011;19043;51.012;5.648;2024-02-16T13:14:21;11.18;;;6.60;;
32633;SDS011;19043;51.012;5.648;2024-02-16T13:16:46;15.38;;;6.95;;
32633;SDS011;19043;51.012;5.648;2024-02-16T13:19:12;8.40;;;6.15;;
32633;SDS011;19043;51.012;5.648;2024-02-16T13:21:38;11.07;;;7.20;;
32633;SDS011;19043;51.012;5.648;2024-02-16T13:24:03;11.35;;;7.22;;
32633;SDS011;19043;51.012;5.648;2024-02-16T13:26:29;16.25;;;8.10;;
32633;SDS011;19043;51.012;5.648;2024-02-16T13:28:55;13.65;;;7.63;;
32633;SDS011;19043;51.012;5.648;2024-02-16T13:31:20;11.00;;;7.30;;
32633;SDS011;19043;51.012;5.648;2024-02-16T13:33:46;11.95;;;7.68;;
32633;SDS011;19043;51.012;5.648;2024-02-16T13:36:11;13.40;;;7.28;;
32633;SDS011;19043;51.012;5.648;2024-02-16T13:38:36;11.68;;;7.28;;
32633;SDS011;19043;51.012;5.648;2024-02-16T13:41:02;9.20;;;6.82;;
32633;SDS011;19043;51.012;5.648;2024-02-16T13:43:30;13.13;;;7.40;;
32633;SDS011;19043;51.012;5.648;2024-02-16T13:45:55;10.85;;;7.40;;
32633;SDS011;19043;51.012;5.648;2024-02-16T13:48:23;9.98;;;7.13;;
32633;SDS011;19043;51.012;5.648;2024-02-16T13:50:48;11.43;;;6.43;;
32633;SDS011;19043;51.012;5.648;2024-02-16T13:53:14;10.90;;;6.55;;
32633;SDS011;19043;51.012;5.648;2024-02-16T13:55:43;11.13;;;6.53;;
32633;SDS011;19043;51.012;5.648;2024-02-16T13:58:09;11.07;;;7.07;;
32633;SDS011;19043;51.012;5.648;2024-02-16T14:00:34;11.13;;;7.60;;
32633;SDS011;19043;51.012;5.648;2024-02-16T14:03:00;9.95;;;6.20;;
32633;SDS011;19043;51.012;5.648;2024-02-16T14:05:26;11.00;;;5.93;;
32633;SDS011;19043;51.012;5.648;2024-02-16T14:07:51;11.75;;;6.50;;
32633;SDS011;19043;51.012;5.648;2024-02-16T14:10:17;11.27;;;6.72;;
32633;SDS011;19043;51.012;5.648;2024-02-16T14:12:44;8.80;;;5.53;;
32633;SDS011;19043;51.012;5.648;2024-02-16T14:15:09;8.93;;;5.28;;
32633;SDS011;19043;51.012;5.648;2024-02-16T14:17:40;6.35;;;4.95;;
32633;SDS011;19043;51.012;5.648;2024-02-16T14:20:05;6.60;;;4.20;;
32633;SDS011;19043;51.012;5.648;2024-02-16T14:22:31;7.15;;;4.60;;
32633;SDS011;19043;51.012;5.648;2024-02-16T14:24:56;7.88;;;4.55;;
32633;SDS011;19043;51.012;5.648;2024-02-16T14:27:22;6.10;;;4.37;;
32633;SDS011;19043;51.012;5.648;2024-02-16T14:29:47;7.33;;;3.83;;
32633;SDS011;19043;51.012;5.648;2024-02-16T14:32:12;5.80;;;3.97;;
32633;SDS011;19043;51.012;5.648;2024-02-16T14:34:37;7.20;;;4.27;;
32633;SDS011;19043;51.012;5.648;2024-02-16T14:37:03;6.10;;;3.70;;
32633;SDS011;19043;51.012;5.648;2024-02-16T14:39:29;7.13;;;4.47;;
32633;SDS011;19043;51.012;5.648;2024-02-16T14:41:54;5.80;;;3.67;;
32633;SDS011;19043;51.012;5.648;2024-02-16T14:44:19;7.50;;;3.90;;